This is the latest recevied weather packets stored in our database for station/object N4XHQ-13. If no packets are shown the sender has not sent any weather packets the latest 10 day(s).
| Time | Temp. | Humidity | Pressure | Rain* | Wind** | Luminosity | Snow |
|---|---|---|---|---|---|---|---|
| 1787756725 | 31.11° C | 53% | 1017.5 hPa | 0 mm | - | 292 W/m² | - |
| 1787756421 | 31.67° C | 53% | 1017.4 hPa | 0 mm | - | 319 W/m² | - |
| 1787756120 | 31.11° C | 55% | 1017.4 hPa | 0 mm | - | 477 W/m² | - |
| 1787755815 | 30.56° C | 56% | 1017.4 hPa | 0 mm | - | 584 W/m² | - |
| 1787755514 | 30.56° C | 55% | 1017.3 hPa | 0 mm | - | 415 W/m² | - |
| 1787755210 | 30.56° C | 54% | 1017.4 hPa | 0 mm | - | 361 W/m² | - |
| 1787754908 | 30° C | 54% | 1017.1 hPa | 0 mm | - | 429 W/m² | - |
| 1787754603 | 29.44° C | 55% | 1016.9 hPa | 0 mm | - | 345 W/m² | - |
| 1787754301 | 29.44° C | 54% | 1017.1 hPa | 0 mm | - | 311 W/m² | - |
| 1787753996 | 30° C | 54% | 1017.2 hPa | 0 mm | - | 253 W/m² | - |
| 1787753695 | 30.56° C | 53% | 1017 hPa | 0 mm | - | 198 W/m² | - |
| 1787753395 | 30.56° C | 50% | 1017 hPa | 0 mm | - | 199 W/m² | - |
| 1787753094 | 31.11° C | 50% | 1016.9 hPa | 0 mm | - | 364 W/m² | - |
| 1787752793 | 31.11° C | 52% | 1016.7 hPa | 0 mm | - | 431 W/m² | - |
| 1787752494 | 30.56° C | 52% | 1017 hPa | 0 mm | - | 290 W/m² | - |
| 1787752189 | 30° C | 55% | 1016.7 hPa | 0 mm | - | 419 W/m² | - |
| 1787751888 | 29.44° C | 58% | 1016.6 hPa | 0 mm | - | 360 W/m² | - |
| 1787751583 | 29.44° C | 59% | 1017 hPa | 0 mm | - | 289 W/m² | - |
| 1787751278 | 28.89° C | 58% | 1016.9 hPa | 0 mm | - | 280 W/m² | - |
| 1787750974 | 28.89° C | 60% | 1016.6 hPa | 0 mm | - | 257 W/m² | - |
| 1787750669 | 28.33° C | 62% | 1016.9 hPa | 0 mm | - | 238 W/m² | - |
| 1787750368 | 27.78° C | 63% | 1016.7 hPa | 0 mm | - | 225 W/m² | - |
| 1787750063 | 26.67° C | 68% | 1016.9 hPa | 0 mm | - | 203 W/m² | - |
| 1787749760 | 25.56° C | 70% | 1016.7 hPa | 0 mm | - | 184 W/m² | - |
| 1787749455 | 25° C | 75% | 1016.6 hPa | 0 mm | - | 168 W/m² | - |
* Rain latest hour (hover to see other rain measurements)
** Current wind speed in m/s (hover to see current wind gust speed)